North Hudson, Wisconsin
Current Conditions -  °F | °C
As of 12:30 AM on Thursday 29 Jan 2015 (Local Time) from K21D Reporting Station
Haze Haze  
Wind Chill: -4°   Ceiling: 300
Heat Index:   Visibility: 2.5mi
Dew Point: -1°   Wind: 7mph
Humidity: 93%   Direction: 320°NW
Pressure: 29.87"   Gusts: NA
Location:  44.9743°N, 92.6899°W
Report Text: K21D 290630Z AUTO 32006KT 2 1/2SM BR OVC003 00/M01 A2987 RMK AO2
Loading
Personal Weather Stations






























Interactive Weather Map New forecast layout! Learn more

10-Day Weather Forecast

Advertisements
Track Severe Weather on mobile